sensor_id;sensor_type;location;lat;lon;timestamp;temperature;humidity
17984;DHT22;9117;52.420;20.728;2022-08-16T00:01:26;21.80;1.00
17984;DHT22;9117;52.420;20.728;2022-08-16T00:04:00;21.60;1.00
17984;DHT22;9117;52.420;20.728;2022-08-16T00:06:31;21.40;1.00
17984;DHT22;9117;52.420;20.728;2022-08-16T00:09:02;21.50;1.00
17984;DHT22;9117;52.420;20.728;2022-08-16T00:11:31;21.40;1.00
17984;DHT22;9117;52.420;20.728;2022-08-16T00:14:01;21.20;1.00
17984;DHT22;9117;52.420;20.728;2022-08-16T00:16:34;21.30;1.00
17984;DHT22;9117;52.420;20.728;2022-08-16T00:19:25;21.40;1.00
17984;DHT22;9117;52.420;20.728;2022-08-16T00:22:07;21.40;1.00
17984;DHT22;9117;52.420;20.728;2022-08-16T00:24:39;21.40;1.00
17984;DHT22;9117;52.420;20.728;2022-08-16T00:27:10;21.20;1.00
17984;DHT22;9117;52.420;20.728;2022-08-16T00:29:41;21.20;1.00
17984;DHT22;9117;52.420;20.728;2022-08-16T00:32:11;21.30;1.00
17984;DHT22;9117;52.420;20.728;2022-08-16T00:34:44;21.20;1.00
17984;DHT22;9117;52.420;20.728;2022-08-16T00:37:19;21.40;1.00
17984;DHT22;9117;52.420;20.728;2022-08-16T00:39:51;21.40;1.00
17984;DHT22;9117;52.420;20.728;2022-08-16T00:42:25;21.40;1.00
17984;DHT22;9117;52.420;20.728;2022-08-16T00:45:03;21.30;1.00
17984;DHT22;9117;52.420;20.728;2022-08-16T00:47:35;21.20;1.00
17984;DHT22;9117;52.420;20.728;2022-08-16T00:50:04;21.30;1.00
17984;DHT22;9117;52.420;20.728;2022-08-16T00:52:38;21.20;1.00
17984;DHT22;9117;52.420;20.728;2022-08-16T00:55:16;21.20;1.00
17984;DHT22;9117;52.420;20.728;2022-08-16T00:57:45;21.00;1.00
17984;DHT22;9117;52.420;20.728;2022-08-16T01:00:29;20.90;1.00
17984;DHT22;9117;52.420;20.728;2022-08-16T01:03:04;20.90;1.00
17984;DHT22;9117;52.420;20.728;2022-08-16T01:05:38;20.80;1.00
17984;DHT22;9117;52.420;20.728;2022-08-16T01:08:09;20.80;1.00
17984;DHT22;9117;52.420;20.728;2022-08-16T01:10:58;20.80;1.00
17984;DHT22;9117;52.420;20.728;2022-08-16T01:13:30;20.80;1.00
17984;DHT22;9117;52.420;20.728;2022-08-16T01:16:04;20.80;1.00
17984;DHT22;9117;52.420;20.728;2022-08-16T01:18:40;20.80;1.00
17984;DHT22;9117;52.420;20.728;2022-08-16T01:21:24;20.70;1.00
17984;DHT22;9117;52.420;20.728;2022-08-16T01:24:12;20.70;1.00
17984;DHT22;9117;52.420;20.728;2022-08-16T01:27:05;20.80;1.00
17984;DHT22;9117;52.420;20.728;2022-08-16T01:29:39;20.70;1.00
17984;DHT22;9117;52.420;20.728;2022-08-16T01:32:26;20.80;1.00
17984;DHT22;9117;52.420;20.728;2022-08-16T01:35:02;20.90;1.00
17984;DHT22;9117;52.420;20.728;2022-08-16T01:37:38;21.00;1.00
17984;DHT22;9117;52.420;20.728;2022-08-16T01:40:27;21.10;1.00
17984;DHT22;9117;52.420;20.728;2022-08-16T01:42:56;21.00;1.00
17984;DHT22;9117;52.420;20.728;2022-08-16T01:45:24;20.90;1.00
17984;DHT22;9117;52.420;20.728;2022-08-16T01:48:07;20.70;1.00
17984;DHT22;9117;52.420;20.728;2022-08-16T01:50:48;20.70;1.00
17984;DHT22;9117;52.420;20.728;2022-08-16T01:53:37;20.70;1.00
17984;DHT22;9117;52.420;20.728;2022-08-16T01:56:09;20.60;1.00
17984;DHT22;9117;52.420;20.728;2022-08-16T01:58:51;20.50;1.00
17984;DHT22;9117;52.420;20.728;2022-08-16T02:01:21;20.40;1.00
17984;DHT22;9117;52.420;20.728;2022-08-16T02:03:54;20.30;1.00
17984;DHT22;9117;52.420;20.728;2022-08-16T02:06:24;20.40;1.00
17984;DHT22;9117;52.420;20.728;2022-08-16T02:09:04;20.50;1.00
17984;DHT22;9117;52.420;20.728;2022-08-16T02:11:43;20.60;1.00
17984;DHT22;9117;52.420;20.728;2022-08-16T02:14:20;20.70;1.00
17984;DHT22;9117;52.420;20.728;2022-08-16T02:16:53;20.60;1.00
17984;DHT22;9117;52.420;20.728;2022-08-16T02:19:23;20.50;1.00
17984;DHT22;9117;52.420;20.728;2022-08-16T02:22:15;20.40;1.00
17984;DHT22;9117;52.420;20.728;2022-08-16T02:25:08;20.60;1.00
17984;DHT22;9117;52.420;20.728;2022-08-16T02:27:43;20.70;1.00
17984;DHT22;9117;52.420;20.728;2022-08-16T02:30:19;20.70;1.00
17984;DHT22;9117;52.420;20.728;2022-08-16T02:33:08;20.60;1.00
17984;DHT22;9117;52.420;20.728;2022-08-16T02:35:36;20.70;1.00
17984;DHT22;9117;52.420;20.728;2022-08-16T02:38:25;20.70;1.00
17984;DHT22;9117;52.420;20.728;2022-08-16T02:40:54;20.70;1.00
17984;DHT22;9117;52.420;20.728;2022-08-16T02:43:24;20.70;1.00
17984;DHT22;9117;52.420;20.728;2022-08-16T02:45:53;20.70;1.00
17984;DHT22;9117;52.420;20.728;2022-08-16T02:48:22;20.50;1.00
17984;DHT22;9117;52.420;20.728;2022-08-16T02:50:56;20.20;1.00
17984;DHT22;9117;52.420;20.728;2022-08-16T02:53:33;20.00;1.00
17984;DHT22;9117;52.420;20.728;2022-08-16T02:56:02;19.90;99.90
17984;DHT22;9117;52.420;20.728;2022-08-16T02:58:37;19.80;99.90
17984;DHT22;9117;52.420;20.728;2022-08-16T03:01:05;19.70;99.90
17984;DHT22;9117;52.420;20.728;2022-08-16T03:03:40;19.90;99.90
17984;DHT22;9117;52.420;20.728;2022-08-16T03:06:29;19.90;99.90
17984;DHT22;9117;52.420;20.728;2022-08-16T03:09:10;19.70;99.90
17984;DHT22;9117;52.420;20.728;2022-08-16T03:11:42;19.90;99.90
17984;DHT22;9117;52.420;20.728;2022-08-16T03:14:13;20.00;99.90
17984;DHT22;9117;52.420;20.728;2022-08-16T03:16:50;20.10;91.10
17984;DHT22;9117;52.420;20.728;2022-08-16T03:19:27;20.20;1.00
17984;DHT22;9117;52.420;20.728;2022-08-16T03:22:16;20.20;1.00
17984;DHT22;9117;52.420;20.728;2022-08-16T03:24:56;20.30;1.00
17984;DHT22;9117;52.420;20.728;2022-08-16T03:27:28;20.30;1.00
17984;DHT22;9117;52.420;20.728;2022-08-16T03:30:01;20.20;1.00
17984;DHT22;9117;52.420;20.728;2022-08-16T03:32:44;20.20;1.00
17984;DHT22;9117;52.420;20.728;2022-08-16T03:35:19;20.20;1.00
17984;DHT22;9117;52.420;20.728;2022-08-16T03:37:51;20.30;1.00
17984;DHT22;9117;52.420;20.728;2022-08-16T03:40:30;20.30;1.00
17984;DHT22;9117;52.420;20.728;2022-08-16T03:43:00;20.30;1.00
17984;DHT22;9117;52.420;20.728;2022-08-16T03:45:49;20.10;1.00
17984;DHT22;9117;52.420;20.728;2022-08-16T03:48:19;20.20;1.00
17984;DHT22;9117;52.420;20.728;2022-08-16T03:51:05;19.90;1.00
17984;DHT22;9117;52.420;20.728;2022-08-16T03:53:35;19.80;1.00
17984;DHT22;9117;52.420;20.728;2022-08-16T03:56:05;19.70;14.10
17984;DHT22;9117;52.420;20.728;2022-08-16T03:58:45;19.60;99.90
17984;DHT22;9117;52.420;20.728;2022-08-16T04:01:18;19.50;99.90
17984;DHT22;9117;52.420;20.728;2022-08-16T04:03:48;19.50;99.90
17984;DHT22;9117;52.420;20.728;2022-08-16T04:06:18;19.50;99.90
17984;DHT22;9117;52.420;20.728;2022-08-16T04:08:47;19.60;99.90
17984;DHT22;9117;52.420;20.728;2022-08-16T04:11:16;19.60;99.90
17984;DHT22;9117;52.420;20.728;2022-08-16T04:13:49;19.60;99.90
17984;DHT22;9117;52.420;20.728;2022-08-16T04:16:26;19.60;99.90
17984;DHT22;9117;52.420;20.728;2022-08-16T04:18:55;19.70;99.90
17984;DHT22;9117;52.420;20.728;2022-08-16T04:21:30;19.80;99.90
17984;DHT22;9117;52.420;20.728;2022-08-16T04:24:00;19.80;99.90
17984;DHT22;9117;52.420;20.728;2022-08-16T04:26:29;19.90;99.90
17984;DHT22;9117;52.420;20.728;2022-08-16T04:28:58;20.00;99.90
17984;DHT22;9117;52.420;20.728;2022-08-16T04:31:49;20.00;99.90
17984;DHT22;9117;52.420;20.728;2022-08-16T04:34:22;20.00;99.90
17984;DHT22;9117;52.420;20.728;2022-08-16T04:36:52;20.10;40.90
17984;DHT22;9117;52.420;20.728;2022-08-16T04:39:22;20.10;1.00
17984;DHT22;9117;52.420;20.728;2022-08-16T04:42:11;20.20;1.00
17984;DHT22;9117;52.420;20.728;2022-08-16T04:44:39;20.20;1.00
17984;DHT22;9117;52.420;20.728;2022-08-16T04:47:23;20.30;1.00
17984;DHT22;9117;52.420;20.728;2022-08-16T04:49:59;20.30;1.00
17984;DHT22;9117;52.420;20.728;2022-08-16T04:52:28;20.40;1.00
17984;DHT22;9117;52.420;20.728;2022-08-16T04:55:04;20.50;1.00
17984;DHT22;9117;52.420;20.728;2022-08-16T04:57:33;20.50;1.00
17984;DHT22;9117;52.420;20.728;2022-08-16T05:00:06;20.60;1.00
17984;DHT22;9117;52.420;20.728;2022-08-16T05:02:58;20.60;1.00
17984;DHT22;9117;52.420;20.728;2022-08-16T05:05:34;20.60;1.00
17984;DHT22;9117;52.420;20.728;2022-08-16T05:08:11;20.70;1.00
17984;DHT22;9117;52.420;20.728;2022-08-16T05:10:57;20.70;1.00
17984;DHT22;9117;52.420;20.728;2022-08-16T05:13:26;20.80;1.00
17984;DHT22;9117;52.420;20.728;2022-08-16T05:16:12;20.70;1.00
17984;DHT22;9117;52.420;20.728;2022-08-16T05:18:48;20.80;1.00
17984;DHT22;9117;52.420;20.728;2022-08-16T05:21:18;20.90;1.00
17984;DHT22;9117;52.420;20.728;2022-08-16T05:23:48;20.90;1.00
17984;DHT22;9117;52.420;20.728;2022-08-16T05:26:22;20.90;1.00
17984;DHT22;9117;52.420;20.728;2022-08-16T05:28:54;20.90;1.00
17984;DHT22;9117;52.420;20.728;2022-08-16T05:31:23;21.00;1.00
17984;DHT22;9117;52.420;20.728;2022-08-16T05:33:57;21.00;1.00
17984;DHT22;9117;52.420;20.728;2022-08-16T05:36:29;21.10;1.00
17984;DHT22;9117;52.420;20.728;2022-08-16T05:39:04;21.10;1.00
17984;DHT22;9117;52.420;20.728;2022-08-16T05:41:34;21.10;1.00
17984;DHT22;9117;52.420;20.728;2022-08-16T05:44:12;21.10;1.00
17984;DHT22;9117;52.420;20.728;2022-08-16T05:46:51;21.20;1.00
17984;DHT22;9117;52.420;20.728;2022-08-16T05:49:22;21.20;1.00
17984;DHT22;9117;52.420;20.728;2022-08-16T05:51:51;21.30;1.00
17984;DHT22;9117;52.420;20.728;2022-08-16T05:54:23;21.30;1.00
17984;DHT22;9117;52.420;20.728;2022-08-16T05:56:52;21.40;1.00
17984;DHT22;9117;52.420;20.728;2022-08-16T05:59:22;21.30;1.00
17984;DHT22;9117;52.420;20.728;2022-08-16T06:01:53;21.40;1.00
17984;DHT22;9117;52.420;20.728;2022-08-16T06:04:23;21.50;1.00
17984;DHT22;9117;52.420;20.728;2022-08-16T06:07:03;21.50;1.00
17984;DHT22;9117;52.420;20.728;2022-08-16T06:09:35;21.60;1.00
17984;DHT22;9117;52.420;20.728;2022-08-16T06:12:10;21.60;1.00
17984;DHT22;9117;52.420;20.728;2022-08-16T06:14:55;21.60;1.00
17984;DHT22;9117;52.420;20.728;2022-08-16T06:17:25;21.70;1.00
17984;DHT22;9117;52.420;20.728;2022-08-16T06:20:15;21.70;1.00
17984;DHT22;9117;52.420;20.728;2022-08-16T06:22:50;21.80;1.00
17984;DHT22;9117;52.420;20.728;2022-08-16T06:25:31;21.90;1.00
17984;DHT22;9117;52.420;20.728;2022-08-16T06:28:04;21.80;1.00
17984;DHT22;9117;52.420;20.728;2022-08-16T06:30:35;22.00;1.00
17984;DHT22;9117;52.420;20.728;2022-08-16T06:33:11;22.00;1.00
17984;DHT22;9117;52.420;20.728;2022-08-16T06:35:49;22.20;1.00
17984;DHT22;9117;52.420;20.728;2022-08-16T06:38:25;22.40;1.00
17984;DHT22;9117;52.420;20.728;2022-08-16T06:41:02;22.50;1.00
17984;DHT22;9117;52.420;20.728;2022-08-16T06:43:32;22.50;1.00
17984;DHT22;9117;52.420;20.728;2022-08-16T06:46:03;22.50;99.90
17984;DHT22;9117;52.420;20.728;2022-08-16T06:48:36;22.60;99.90
17984;DHT22;9117;52.420;20.728;2022-08-16T06:51:11;22.70;99.90
17984;DHT22;9117;52.420;20.728;2022-08-16T06:53:40;22.80;99.90
17984;DHT22;9117;52.420;20.728;2022-08-16T06:56:09;22.90;99.90
17984;DHT22;9117;52.420;20.728;2022-08-16T06:58:49;23.00;99.90
17984;DHT22;9117;52.420;20.728;2022-08-16T07:01:17;23.10;99.90
17984;DHT22;9117;52.420;20.728;2022-08-16T07:04:05;23.10;99.90
17984;DHT22;9117;52.420;20.728;2022-08-16T07:06:39;23.30;99.90
17984;DHT22;9117;52.420;20.728;2022-08-16T07:09:10;23.40;99.90
17984;DHT22;9117;52.420;20.728;2022-08-16T07:11:42;23.50;99.90
17984;DHT22;9117;52.420;20.728;2022-08-16T07:14:14;23.50;99.90
17984;DHT22;9117;52.420;20.728;2022-08-16T07:16:53;23.40;99.90
17984;DHT22;9117;52.420;20.728;2022-08-16T07:19:25;23.40;99.90
17984;DHT22;9117;52.420;20.728;2022-08-16T07:22:15;23.40;99.90
17984;DHT22;9117;52.420;20.728;2022-08-16T07:25:05;23.30;99.90
17984;DHT22;9117;52.420;20.728;2022-08-16T07:27:33;23.40;99.90
17984;DHT22;9117;52.420;20.728;2022-08-16T07:30:06;23.40;99.90
17984;DHT22;9117;52.420;20.728;2022-08-16T07:32:54;23.60;99.90
17984;DHT22;9117;52.420;20.728;2022-08-16T07:35:23;23.60;99.90
17984;DHT22;9117;52.420;20.728;2022-08-16T07:37:52;23.60;99.90
17984;DHT22;9117;52.420;20.728;2022-08-16T07:40:21;23.80;99.90
17984;DHT22;9117;52.420;20.728;2022-08-16T07:43:09;23.90;99.90
17984;DHT22;9117;52.420;20.728;2022-08-16T07:45:37;24.00;99.90
17984;DHT22;9117;52.420;20.728;2022-08-16T07:48:09;24.10;99.90
17984;DHT22;9117;52.420;20.728;2022-08-16T07:50:39;24.00;99.90
17984;DHT22;9117;52.420;20.728;2022-08-16T07:53:26;24.10;99.90
17984;DHT22;9117;52.420;20.728;2022-08-16T07:55:57;24.20;99.90
17984;DHT22;9117;52.420;20.728;2022-08-16T07:58:27;24.20;99.90
17984;DHT22;9117;52.420;20.728;2022-08-16T08:01:03;24.10;99.90
17984;DHT22;9117;52.420;20.728;2022-08-16T08:03:39;24.20;99.90
17984;DHT22;9117;52.420;20.728;2022-08-16T08:06:15;24.20;99.90
17984;DHT22;9117;52.420;20.728;2022-08-16T08:08:45;24.30;99.90
17984;DHT22;9117;52.420;20.728;2022-08-16T08:11:18;24.30;99.90
17984;DHT22;9117;52.420;20.728;2022-08-16T08:13:47;24.40;99.90
17984;DHT22;9117;52.420;20.728;2022-08-16T08:16:17;24.50;99.90
17984;DHT22;9117;52.420;20.728;2022-08-16T08:18:47;24.50;99.90
17984;DHT22;9117;52.420;20.728;2022-08-16T08:21:27;24.70;99.90
17984;DHT22;9117;52.420;20.728;2022-08-16T08:24:16;24.60;99.90
17984;DHT22;9117;52.420;20.728;2022-08-16T08:26:44;24.80;99.90
17984;DHT22;9117;52.420;20.728;2022-08-16T08:29:16;24.90;99.90
17984;DHT22;9117;52.420;20.728;2022-08-16T08:31:50;25.00;99.90
17984;DHT22;9117;52.420;20.728;2022-08-16T08:34:20;25.20;99.90
17984;DHT22;9117;52.420;20.728;2022-08-16T08:36:49;25.20;99.90
17984;DHT22;9117;52.420;20.728;2022-08-16T08:39:21;25.20;99.90
17984;DHT22;9117;52.420;20.728;2022-08-16T08:41:50;25.10;99.90
17984;DHT22;9117;52.420;20.728;2022-08-16T08:44:20;25.20;99.90
17984;DHT22;9117;52.420;20.728;2022-08-16T08:46:57;25.30;99.90
17984;DHT22;9117;52.420;20.728;2022-08-16T08:49:28;25.40;99.90
17984;DHT22;9117;52.420;20.728;2022-08-16T08:52:16;25.50;99.90
17984;DHT22;9117;52.420;20.728;2022-08-16T08:55:09;25.60;99.90
17984;DHT22;9117;52.420;20.728;2022-08-16T08:57:39;25.60;99.90
17984;DHT22;9117;52.420;20.728;2022-08-16T09:00:08;25.80;99.90
17984;DHT22;9117;52.420;20.728;2022-08-16T09:02:40;25.90;99.90
17984;DHT22;9117;52.420;20.728;2022-08-16T09:05:10;25.90;99.90
17984;DHT22;9117;52.420;20.728;2022-08-16T09:07:42;26.00;99.90
17984;DHT22;9117;52.420;20.728;2022-08-16T09:10:28;26.20;99.90
17984;DHT22;9117;52.420;20.728;2022-08-16T09:12:58;26.20;99.90
17984;DHT22;9117;52.420;20.728;2022-08-16T09:15:27;26.30;99.90
17984;DHT22;9117;52.420;20.728;2022-08-16T09:17:59;26.40;99.90
17984;DHT22;9117;52.420;20.728;2022-08-16T09:20:49;26.50;99.90
17984;DHT22;9117;52.420;20.728;2022-08-16T09:23:26;26.50;99.90
17984;DHT22;9117;52.420;20.728;2022-08-16T09:25:56;26.60;99.90
17984;DHT22;9117;52.420;20.728;2022-08-16T09:28:24;26.70;99.90
17984;DHT22;9117;52.420;20.728;2022-08-16T09:31:12;26.60;99.90
17984;DHT22;9117;52.420;20.728;2022-08-16T09:33:42;26.70;99.90
17984;DHT22;9117;52.420;20.728;2022-08-16T09:36:17;26.70;99.90
17984;DHT22;9117;52.420;20.728;2022-08-16T09:38:59;26.80;99.90
17984;DHT22;9117;52.420;20.728;2022-08-16T09:41:30;26.70;99.90
17984;DHT22;9117;52.420;20.728;2022-08-16T09:44:00;27.00;99.90
17984;DHT22;9117;52.420;20.728;2022-08-16T09:46:54;27.00;99.90
17984;DHT22;9117;52.420;20.728;2022-08-16T09:49:24;26.90;99.90
17984;DHT22;9117;52.420;20.728;2022-08-16T09:52:03;27.20;99.90
17984;DHT22;9117;52.420;20.728;2022-08-16T09:54:36;27.30;99.90
17984;DHT22;9117;52.420;20.728;2022-08-16T09:57:12;27.50;99.90
17984;DHT22;9117;52.420;20.728;2022-08-16T09:59:41;27.60;99.90
17984;DHT22;9117;52.420;20.728;2022-08-16T10:02:09;27.70;99.90
17984;DHT22;9117;52.420;20.728;2022-08-16T10:04:54;27.80;99.90
17984;DHT22;9117;52.420;20.728;2022-08-16T10:07:23;27.80;99.90
17984;DHT22;9117;52.420;20.728;2022-08-16T10:09:51;27.60;99.90
17984;DHT22;9117;52.420;20.728;2022-08-16T10:12:24;27.00;99.90
17984;DHT22;9117;52.420;20.728;2022-08-16T10:15:12;26.90;99.90
17984;DHT22;9117;52.420;20.728;2022-08-16T10:17:44;26.70;99.90
17984;DHT22;9117;52.420;20.728;2022-08-16T10:20:29;26.80;99.90
17984;DHT22;9117;52.420;20.728;2022-08-16T10:22:58;27.30;99.90
17984;DHT22;9117;52.420;20.728;2022-08-16T10:25:34;27.40;99.90
17984;DHT22;9117;52.420;20.728;2022-08-16T10:28:25;27.50;99.90
17984;DHT22;9117;52.420;20.728;2022-08-16T10:30:58;27.20;99.90
17984;DHT22;9117;52.420;20.728;2022-08-16T10:33:30;27.40;99.90
17984;DHT22;9117;52.420;20.728;2022-08-16T10:36:00;27.60;99.90
17984;DHT22;9117;52.420;20.728;2022-08-16T10:38:35;27.60;99.90
17984;DHT22;9117;52.420;20.728;2022-08-16T10:41:04;27.60;99.90
17984;DHT22;9117;52.420;20.728;2022-08-16T10:43:35;27.80;99.90
17984;DHT22;9117;52.420;20.728;2022-08-16T10:46:05;28.10;99.90
17984;DHT22;9117;52.420;20.728;2022-08-16T10:48:54;28.20;99.90
17984;DHT22;9117;52.420;20.728;2022-08-16T10:51:23;28.00;99.90
17984;DHT22;9117;52.420;20.728;2022-08-16T10:54:11;28.10;99.90
17984;DHT22;9117;52.420;20.728;2022-08-16T10:56:56;28.10;99.90
17984;DHT22;9117;52.420;20.728;2022-08-16T10:59:26;27.90;99.90
17984;DHT22;9117;52.420;20.728;2022-08-16T11:02:13;27.90;99.90
17984;DHT22;9117;52.420;20.728;2022-08-16T11:05:04;27.80;99.90
17984;DHT22;9117;52.420;20.728;2022-08-16T11:07:35;27.80;99.90
17984;DHT22;9117;52.420;20.728;2022-08-16T11:10:23;27.70;99.90
17984;DHT22;9117;52.420;20.728;2022-08-16T11:13:13;27.70;99.90
17984;DHT22;9117;52.420;20.728;2022-08-16T11:16:03;27.50;99.90
17984;DHT22;9117;52.420;20.728;2022-08-16T11:18:52;27.60;99.90
17984;DHT22;9117;52.420;20.728;2022-08-16T11:21:37;27.80;99.90
17984;DHT22;9117;52.420;20.728;2022-08-16T11:24:26;28.20;99.90
17984;DHT22;9117;52.420;20.728;2022-08-16T11:27:12;28.20;99.90
17984;DHT22;9117;52.420;20.728;2022-08-16T11:29:47;28.40;99.90
17984;DHT22;9117;52.420;20.728;2022-08-16T11:32:19;28.40;99.90
17984;DHT22;9117;52.420;20.728;2022-08-16T11:34:59;28.50;99.90
17984;DHT22;9117;52.420;20.728;2022-08-16T11:37:42;28.10;99.90
17984;DHT22;9117;52.420;20.728;2022-08-16T11:40:33;28.40;99.90
17984;DHT22;9117;52.420;20.728;2022-08-16T11:43:06;28.40;99.90
17984;DHT22;9117;52.420;20.728;2022-08-16T11:45:36;28.50;99.90
17984;DHT22;9117;52.420;20.728;2022-08-16T11:48:09;28.40;99.90
17984;DHT22;9117;52.420;20.728;2022-08-16T11:50:40;28.10;99.90
17984;DHT22;9117;52.420;20.728;2022-08-16T11:53:09;28.00;99.90
17984;DHT22;9117;52.420;20.728;2022-08-16T11:55:41;28.00;99.90
17984;DHT22;9117;52.420;20.728;2022-08-16T11:58:10;27.90;99.90
17984;DHT22;9117;52.420;20.728;2022-08-16T12:00:42;27.90;99.90
17984;DHT22;9117;52.420;20.728;2022-08-16T12:03:21;27.70;99.90
17984;DHT22;9117;52.420;20.728;2022-08-16T12:06:05;27.60;99.90
17984;DHT22;9117;52.420;20.728;2022-08-16T12:08:51;27.60;99.90
17984;DHT22;9117;52.420;20.728;2022-08-16T12:11:21;27.70;99.90
17984;DHT22;9117;52.420;20.728;2022-08-16T12:13:52;27.60;99.90
17984;DHT22;9117;52.420;20.728;2022-08-16T12:16:20;27.40;99.90
17984;DHT22;9117;52.420;20.728;2022-08-16T12:18:58;27.40;99.90
17984;DHT22;9117;52.420;20.728;2022-08-16T12:21:26;27.10;99.90
17984;DHT22;9117;52.420;20.728;2022-08-16T12:24:14;26.90;99.90
17984;DHT22;9117;52.420;20.728;2022-08-16T12:26:42;27.00;99.90
17984;DHT22;9117;52.420;20.728;2022-08-16T12:29:10;27.00;99.90
17984;DHT22;9117;52.420;20.728;2022-08-16T12:31:39;27.20;99.90
17984;DHT22;9117;52.420;20.728;2022-08-16T12:34:28;27.30;99.90
17984;DHT22;9117;52.420;20.728;2022-08-16T12:37:01;27.10;99.90
17984;DHT22;9117;52.420;20.728;2022-08-16T12:39:37;27.20;99.90
17984;DHT22;9117;52.420;20.728;2022-08-16T12:42:16;27.30;99.90
17984;DHT22;9117;52.420;20.728;2022-08-16T12:44:50;27.60;99.90
17984;DHT22;9117;52.420;20.728;2022-08-16T12:47:18;27.90;99.90
17984;DHT22;9117;52.420;20.728;2022-08-16T12:50:06;27.90;99.90
17984;DHT22;9117;52.420;20.728;2022-08-16T12:52:41;27.80;99.90
17984;DHT22;9117;52.420;20.728;2022-08-16T12:55:19;28.00;99.90
17984;DHT22;9117;52.420;20.728;2022-08-16T12:57:48;28.40;99.90
17984;DHT22;9117;52.420;20.728;2022-08-16T13:00:27;28.40;99.90
17984;DHT22;9117;52.420;20.728;2022-08-16T13:03:00;29.00;99.90
17984;DHT22;9117;52.420;20.728;2022-08-16T13:05:31;29.30;99.90
17984;DHT22;9117;52.420;20.728;2022-08-16T13:08:19;29.60;99.90
17984;DHT22;9117;52.420;20.728;2022-08-16T13:10:53;30.00;99.90
17984;DHT22;9117;52.420;20.728;2022-08-16T13:13:23;30.50;99.90
17984;DHT22;9117;52.420;20.728;2022-08-16T13:15:53;30.80;99.90
17984;DHT22;9117;52.420;20.728;2022-08-16T13:18:31;30.70;99.90
17984;DHT22;9117;52.420;20.728;2022-08-16T13:21:03;31.00;99.90
17984;DHT22;9117;52.420;20.728;2022-08-16T13:23:32;31.20;99.90
17984;DHT22;9117;52.420;20.728;2022-08-16T13:26:02;31.60;99.90
17984;DHT22;9117;52.420;20.728;2022-08-16T13:28:33;31.90;99.90
17984;DHT22;9117;52.420;20.728;2022-08-16T13:31:02;32.10;99.90
17984;DHT22;9117;52.420;20.728;2022-08-16T13:33:34;32.40;99.90
17984;DHT22;9117;52.420;20.728;2022-08-16T13:36:06;32.30;99.90
17984;DHT22;9117;52.420;20.728;2022-08-16T13:38:51;32.30;99.90
17984;DHT22;9117;52.420;20.728;2022-08-16T13:41:20;32.20;99.90
17984;DHT22;9117;52.420;20.728;2022-08-16T13:43:48;32.60;99.90
17984;DHT22;9117;52.420;20.728;2022-08-16T13:46:23;32.30;99.90
17984;DHT22;9117;52.420;20.728;2022-08-16T13:48:52;32.40;99.90
17984;DHT22;9117;52.420;20.728;2022-08-16T13:51:22;32.40;99.90
17984;DHT22;9117;52.420;20.728;2022-08-16T13:53:56;32.40;99.90
17984;DHT22;9117;52.420;20.728;2022-08-16T13:56:30;32.10;99.90
17984;DHT22;9117;52.420;20.728;2022-08-16T13:59:05;32.10;99.90
17984;DHT22;9117;52.420;20.728;2022-08-16T14:01:48;32.50;99.90
17984;DHT22;9117;52.420;20.728;2022-08-16T14:04:23;32.40;99.90
17984;DHT22;9117;52.420;20.728;2022-08-16T14:06:54;32.80;99.90
17984;DHT22;9117;52.420;20.728;2022-08-16T14:09:23;32.70;99.90
17984;DHT22;9117;52.420;20.728;2022-08-16T14:11:53;33.00;99.90
17984;DHT22;9117;52.420;20.728;2022-08-16T14:14:21;33.10;99.90
17984;DHT22;9117;52.420;20.728;2022-08-16T14:16:56;32.80;99.90
17984;DHT22;9117;52.420;20.728;2022-08-16T14:19:24;32.80;99.90
17984;DHT22;9117;52.420;20.728;2022-08-16T14:21:57;32.90;99.90
17984;DHT22;9117;52.420;20.728;2022-08-16T14:24:40;33.00;99.90
17984;DHT22;9117;52.420;20.728;2022-08-16T14:27:13;33.40;99.90
17984;DHT22;9117;52.420;20.728;2022-08-16T14:29:43;33.40;99.90
17984;DHT22;9117;52.420;20.728;2022-08-16T14:32:16;33.60;99.90
17984;DHT22;9117;52.420;20.728;2022-08-16T14:35:01;34.00;99.90
17984;DHT22;9117;52.420;20.728;2022-08-16T14:37:31;34.70;99.90
17984;DHT22;9117;52.420;20.728;2022-08-16T14:39:59;34.50;99.90
17984;DHT22;9117;52.420;20.728;2022-08-16T14:42:29;34.80;99.90
17984;DHT22;9117;52.420;20.728;2022-08-16T14:44:57;35.00;99.90
17984;DHT22;9117;52.420;20.728;2022-08-16T14:47:26;35.10;99.90
17984;DHT22;9117;52.420;20.728;2022-08-16T14:50:00;34.90;99.90
17984;DHT22;9117;52.420;20.728;2022-08-16T14:52:33;35.10;99.90
17984;DHT22;9117;52.420;20.728;2022-08-16T14:55:21;35.10;99.90
17984;DHT22;9117;52.420;20.728;2022-08-16T14:57:49;35.10;99.90
17984;DHT22;9117;52.420;20.728;2022-08-16T15:00:21;34.90;99.90
17984;DHT22;9117;52.420;20.728;2022-08-16T15:03:01;34.80;99.90
17984;DHT22;9117;52.420;20.728;2022-08-16T15:05:30;35.10;99.90
17984;DHT22;9117;52.420;20.728;2022-08-16T15:08:00;35.80;99.90
17984;DHT22;9117;52.420;20.728;2022-08-16T15:10:28;36.40;99.90
17984;DHT22;9117;52.420;20.728;2022-08-16T15:12:58;36.20;99.90
17984;DHT22;9117;52.420;20.728;2022-08-16T15:15:28;36.90;99.90
17984;DHT22;9117;52.420;20.728;2022-08-16T15:17:57;36.60;99.90
17984;DHT22;9117;52.420;20.728;2022-08-16T15:20:29;36.30;99.90
17984;DHT22;9117;52.420;20.728;2022-08-16T15:23:01;36.00;99.90
17984;DHT22;9117;52.420;20.728;2022-08-16T15:25:31;35.20;99.90
17984;DHT22;9117;52.420;20.728;2022-08-16T15:28:02;34.40;99.90
17984;DHT22;9117;52.420;20.728;2022-08-16T15:30:33;33.30;99.90
17984;DHT22;9117;52.420;20.728;2022-08-16T15:33:23;33.60;99.90
17984;DHT22;9117;52.420;20.728;2022-08-16T15:35:53;33.30;99.90
17984;DHT22;9117;52.420;20.728;2022-08-16T15:38:26;33.70;99.90
17984;DHT22;9117;52.420;20.728;2022-08-16T15:44:17;34.60;99.90
17984;DHT22;9117;52.420;20.728;2022-08-16T15:46:48;35.10;99.90
17984;DHT22;9117;52.420;20.728;2022-08-16T15:49:26;34.80;99.90
17984;DHT22;9117;52.420;20.728;2022-08-16T15:52:09;34.10;99.90
17984;DHT22;9117;52.420;20.728;2022-08-16T15:54:39;34.10;99.90
17984;DHT22;9117;52.420;20.728;2022-08-16T15:57:19;34.20;99.90
17984;DHT22;9117;52.420;20.728;2022-08-16T15:59:47;34.10;99.90
17984;DHT22;9117;52.420;20.728;2022-08-16T16:02:23;34.10;99.90
17984;DHT22;9117;52.420;20.728;2022-08-16T16:04:58;33.80;99.90
17984;DHT22;9117;52.420;20.728;2022-08-16T16:07:29;33.40;99.90
17984;DHT22;9117;52.420;20.728;2022-08-16T16:10:03;33.50;99.90
17984;DHT22;9117;52.420;20.728;2022-08-16T16:12:39;34.10;99.90
17984;DHT22;9117;52.420;20.728;2022-08-16T16:15:24;34.00;99.90
17984;DHT22;9117;52.420;20.728;2022-08-16T16:17:55;33.60;99.90
17984;DHT22;9117;52.420;20.728;2022-08-16T16:20:26;32.80;99.90
17984;DHT22;9117;52.420;20.728;2022-08-16T16:22:57;31.70;99.90
17984;DHT22;9117;52.420;20.728;2022-08-16T16:25:27;31.10;99.90
17984;DHT22;9117;52.420;20.728;2022-08-16T16:27:56;31.10;99.90